createdAt,value
2018-03-07T00:02:24.719Z,91.87
2018-03-07T00:04:52.869Z,87.30
2018-03-07T00:07:21.018Z,97.63
2018-03-07T00:09:49.222Z,92.77
2018-03-07T00:12:17.361Z,93.63
2018-03-07T00:14:45.515Z,93.23
2018-03-07T00:17:15.586Z,97.93
2018-03-07T00:19:43.770Z,82.30
2018-03-07T00:22:14.805Z,97.30
2018-03-07T00:24:42.943Z,86.97
2018-03-07T00:27:21.118Z,82.10
2018-03-07T00:29:49.250Z,91.00
2018-03-07T00:32:17.408Z,85.37
2018-03-07T00:34:46.323Z,82.80
2018-03-07T00:37:21.805Z,96.53
2018-03-07T00:39:49.945Z,89.47
2018-03-07T00:42:18.331Z,95.60
2018-03-07T00:44:46.466Z,90.37
2018-03-07T00:47:23.307Z,84.73
2018-03-07T00:49:51.451Z,83.57
2018-03-07T00:52:20.001Z,83.33
2018-03-07T00:54:48.902Z,83.33
2018-03-07T00:57:17.063Z,82.63
2018-03-07T00:59:45.970Z,83.50
2018-03-07T01:02:14.128Z,89.73
2018-03-07T01:04:43.110Z,86.70
2018-03-07T01:07:19.974Z,91.70
2018-03-07T01:09:48.150Z,85.10
2018-03-07T01:12:16.393Z,77.67
2018-03-07T01:14:44.582Z,82.93
2018-03-07T01:17:20.002Z,81.93
2018-03-07T01:19:48.195Z,79.13
2018-03-07T01:22:16.662Z,84.30
2018-03-07T01:24:45.670Z,90.43
2018-03-07T01:27:17.950Z,89.97
2018-03-07T01:29:46.272Z,79.97
2018-03-07T01:32:14.443Z,89.23
2018-03-07T01:34:42.597Z,82.13
2018-03-07T01:39:52.493Z,91.13
2018-03-07T01:42:20.634Z,88.57
2018-03-07T01:44:48.802Z,85.93
2018-03-07T01:47:16.929Z,86.27
2018-03-07T01:49:45.078Z,85.07
2018-03-07T01:52:13.229Z,79.00
2018-03-07T01:54:42.164Z,87.70
2018-03-07T01:57:10.313Z,89.57
2018-03-07T01:59:38.474Z,85.43
2018-03-07T02:02:07.396Z,83.60
2018-03-07T02:04:37.134Z,97.23
2018-03-07T02:07:05.303Z,92.50
2018-03-07T02:09:33.462Z,93.87
2018-03-07T02:12:01.598Z,94.27
2018-03-07T02:14:30.502Z,99.63
2018-03-07T02:17:05.982Z,91.47
2018-03-07T02:19:34.117Z,86.20
2018-03-07T02:22:02.313Z,97.33
2018-03-07T02:24:30.449Z,93.93
2018-03-07T02:27:04.818Z,95.43
2018-03-07T02:29:32.960Z,91.10
2018-03-07T02:32:01.123Z,95.57
2018-03-07T02:34:29.265Z,91.97
2018-03-07T02:37:09.084Z,89.43
2018-03-07T02:39:37.225Z,89.37
2018-03-07T02:42:05.378Z,89.73
2018-03-07T02:44:34.313Z,84.53
2018-03-07T02:47:06.078Z,92.60
2018-03-07T02:49:34.213Z,94.13
2018-03-07T02:52:02.365Z,95.07
2018-03-07T02:54:31.270Z,93.37
2018-03-07T02:57:01.437Z,93.83
2018-03-07T02:59:29.585Z,92.80
2018-03-07T03:01:57.753Z,94.00
2018-03-07T03:04:25.890Z,92.40
2018-03-07T03:06:57.922Z,105.57
2018-03-07T03:09:26.061Z,94.17
2018-03-07T03:11:54.218Z,99.07
2018-03-07T03:14:23.122Z,83.80
2018-03-07T03:16:51.282Z,105.17
2018-03-07T03:19:20.186Z,99.03
2018-03-07T03:21:48.341Z,96.33
2018-03-07T03:24:17.238Z,96.60
2018-03-07T03:26:51.500Z,98.20
2018-03-07T03:29:19.642Z,93.60
2018-03-07T03:31:47.792Z,88.43
2018-03-07T03:34:16.690Z,94.13
2018-03-07T03:36:53.310Z,86.03
2018-03-07T03:39:21.478Z,86.80
2018-03-07T03:41:49.729Z,83.80
2018-03-07T03:44:17.874Z,84.80
2018-03-07T03:46:54.198Z,87.47
2018-03-07T03:49:22.342Z,88.03
2018-03-07T03:51:50.490Z,87.47
2018-03-07T03:54:19.394Z,87.37
2018-03-07T03:56:55.182Z,100.03
2018-03-07T03:59:23.333Z,92.37
2018-03-07T04:01:51.481Z,85.23
2018-03-07T04:04:20.378Z,83.90
2018-03-07T04:06:56.066Z,87.10
2018-03-07T04:09:24.206Z,83.67
2018-03-07T04:11:52.374Z,90.10
2018-03-07T04:14:20.514Z,87.10
2018-03-07T04:16:48.717Z,85.30
2018-03-07T04:19:16.858Z,84.90
2018-03-07T04:21:45.018Z,88.43
2018-03-07T04:24:13.171Z,92.17
2018-03-07T04:26:50.569Z,89.43
2018-03-07T04:29:18.713Z,90.63
2018-03-07T04:31:46.870Z,84.10
2018-03-07T04:34:15.003Z,88.03
2018-03-07T04:36:44.081Z,89.90
2018-03-07T04:39:12.214Z,85.40
2018-03-07T04:41:40.377Z,92.93
2018-03-07T04:44:09.277Z,89.00
2018-03-07T04:46:38.424Z,86.20
2018-03-07T04:49:06.566Z,83.33
2018-03-07T04:51:34.713Z,77.90
2018-03-07T04:54:03.635Z,82.03
2018-03-07T04:56:55.768Z,82.23
2018-03-07T04:59:23.905Z,71.03
2018-03-07T05:01:52.806Z,76.77
2018-03-07T05:04:20.957Z,70.03
2018-03-07T05:06:49.093Z,76.30
2018-03-07T05:09:17.247Z,88.10
2018-03-07T05:11:45.378Z,77.20
2018-03-07T05:14:14.301Z,69.50
2018-03-07T05:16:45.969Z,81.67
2018-03-07T05:19:14.131Z,74.03
2018-03-07T05:21:42.274Z,69.87
2018-03-07T05:24:11.217Z,81.20
2018-03-07T05:26:42.755Z,73.53
2018-03-07T05:29:10.909Z,70.53
2018-03-07T05:31:39.056Z,68.00
2018-03-07T05:34:07.210Z,74.77
2018-03-07T05:36:35.361Z,67.90
2018-03-07T05:39:03.563Z,66.13
2018-03-07T05:41:31.738Z,62.43
2018-03-07T05:43:59.978Z,58.13
2018-03-07T05:46:42.364Z,57.70
2018-03-07T05:49:10.529Z,48.17
2018-03-07T05:51:38.678Z,49.43
2018-03-07T05:54:06.829Z,53.13
2018-03-07T05:56:36.970Z,47.63
2018-03-07T05:59:05.174Z,46.07
2018-03-07T06:01:33.414Z,43.47
2018-03-07T06:04:02.383Z,43.63
2018-03-07T06:06:33.609Z,43.60
2018-03-07T06:09:01.754Z,41.77
2018-03-07T06:11:29.981Z,37.67
2018-03-07T06:13:58.121Z,36.00
2018-03-07T06:16:29.385Z,37.43
2018-03-07T06:18:57.526Z,41.53
2018-03-07T06:21:25.689Z,39.83
2018-03-07T06:23:54.589Z,37.07
2018-03-07T06:26:22.750Z,40.37
2018-03-07T06:28:50.890Z,38.93
2018-03-07T06:31:19.048Z,39.37
2018-03-07T06:33:47.185Z,37.03
2018-03-07T06:36:15.422Z,36.63
2018-03-07T06:38:43.574Z,33.20
2018-03-07T06:41:11.770Z,34.57
2018-03-07T06:43:39.906Z,38.30
2018-03-07T06:46:15.185Z,38.83
2018-03-07T06:48:43.318Z,36.27
2018-03-07T06:51:11.494Z,39.83
2018-03-07T06:53:39.626Z,35.07
2018-03-07T06:56:09.469Z,40.43
2018-03-07T06:58:37.626Z,37.77
2018-03-07T07:01:05.770Z,41.10
2018-03-07T07:03:34.699Z,38.97
2018-03-07T07:06:02.846Z,38.57
2018-03-07T07:08:31.802Z,37.33
2018-03-07T07:10:59.967Z,36.33
2018-03-07T07:13:28.175Z,38.63
2018-03-07T07:15:59.190Z,35.93
2018-03-07T07:18:27.439Z,36.67
2018-03-07T07:20:55.690Z,36.57
2018-03-07T07:23:23.887Z,35.60
2018-03-07T07:25:55.739Z,33.23
2018-03-07T07:28:23.897Z,33.07
2018-03-07T07:30:52.038Z,34.43
2018-03-07T07:33:20.198Z,33.47
2018-03-07T07:35:55.574Z,34.50
2018-03-07T07:38:24.485Z,38.10
2018-03-07T07:40:52.626Z,36.37
2018-03-07T07:43:21.577Z,34.27
2018-03-07T07:45:50.648Z,31.27
2018-03-07T07:48:18.817Z,31.13
2018-03-07T07:50:46.976Z,33.27
2018-03-07T07:53:15.898Z,29.70
2018-03-07T07:55:44.981Z,32.50
2018-03-07T07:58:13.143Z,28.80
2018-03-07T08:00:41.327Z,28.83
2018-03-07T08:03:10.234Z,28.50
2018-03-07T08:05:42.493Z,27.80
2018-03-07T08:08:10.662Z,24.00
2018-03-07T08:10:38.825Z,23.90
2018-03-07T08:13:06.962Z,23.60
2018-03-07T08:15:45.458Z,25.97
2018-03-07T08:18:13.605Z,23.47
2018-03-07T08:20:41.776Z,23.70
2018-03-07T08:23:09.910Z,25.07
2018-03-07T08:25:42.145Z,20.93
2018-03-07T08:28:10.282Z,21.27
2018-03-07T08:30:38.439Z,17.37
2018-03-07T08:33:06.588Z,18.13
2018-03-07T08:35:38.918Z,18.27
2018-03-07T08:38:07.054Z,19.33
2018-03-07T08:40:35.213Z,18.07
2018-03-07T08:43:04.122Z,19.93
2018-03-07T08:45:46.535Z,18.33
2018-03-07T08:48:14.672Z,20.53
2018-03-07T08:50:42.830Z,18.10
2018-03-07T08:53:10.984Z,18.27
2018-03-07T08:55:52.350Z,13.87
2018-03-07T08:58:20.488Z,13.43
2018-03-07T09:00:49.442Z,11.63
2018-03-07T09:03:17.598Z,17.50
2018-03-07T09:05:45.762Z,15.47
2018-03-07T09:08:13.898Z,13.63
2018-03-07T09:10:42.820Z,12.37
2018-03-07T09:13:10.964Z,15.00
2018-03-07T09:15:40.117Z,11.33
2018-03-07T09:18:08.283Z,13.17
2018-03-07T09:20:36.453Z,10.77
2018-03-07T09:23:04.584Z,12.40
2018-03-07T09:25:51.718Z,11.80
2018-03-07T09:28:19.909Z,11.23
2018-03-07T09:30:48.065Z,10.90
2018-03-07T09:33:16.206Z,13.87
2018-03-07T09:35:57.141Z,11.87
2018-03-07T09:38:25.277Z,11.20
2018-03-07T09:40:53.442Z,12.17
2018-03-07T09:43:22.334Z,10.13
2018-03-07T09:45:50.490Z,10.80
2018-03-07T09:48:18.619Z,8.20
2018-03-07T09:50:46.766Z,8.60
2018-03-07T09:53:14.897Z,10.53
2018-03-07T09:55:45.019Z,10.73
2018-03-07T09:58:13.983Z,12.40
2018-03-07T10:00:42.199Z,10.87
2018-03-07T10:03:11.182Z,12.20
2018-03-07T10:05:47.106Z,12.17
2018-03-07T10:08:15.351Z,14.70
2018-03-07T10:10:43.547Z,12.90
2018-03-07T10:13:11.764Z,12.83
2018-03-07T10:15:54.730Z,9.90
2018-03-07T10:18:23.704Z,10.10
2018-03-07T10:20:51.909Z,10.57
2018-03-07T10:23:20.167Z,9.20
2018-03-07T10:25:55.911Z,8.47
2018-03-07T10:28:24.079Z,7.03
2018-03-07T10:30:52.270Z,6.07
2018-03-07T10:33:26.043Z,7.43
2018-03-07T10:35:55.882Z,7.77
2018-03-07T10:38:24.030Z,7.90
2018-03-07T10:40:52.926Z,6.77
2018-03-07T10:43:21.078Z,8.80
2018-03-07T10:45:57.086Z,5.43
2018-03-07T10:48:25.238Z,4.67
2018-03-07T10:50:53.377Z,5.00
2018-03-07T10:53:21.534Z,6.47
2018-03-07T10:55:49.667Z,4.80
2018-03-07T10:58:17.818Z,3.93
2018-03-07T11:00:45.951Z,4.37
2018-03-07T11:03:14.105Z,4.30
2018-03-07T11:05:47.783Z,3.77
2018-03-07T11:08:15.941Z,4.60
2018-03-07T11:10:44.078Z,6.67
2018-03-07T11:13:12.232Z,5.33
2018-03-07T11:15:42.324Z,5.77
2018-03-07T11:18:10.469Z,5.10
2018-03-07T11:20:38.617Z,4.73
2018-03-07T11:23:06.779Z,4.97
2018-03-07T11:25:42.406Z,6.17
2018-03-07T11:28:10.565Z,7.03
2018-03-07T11:30:38.707Z,5.70
2018-03-07T11:33:06.865Z,4.77
2018-03-07T11:35:36.010Z,5.10
2018-03-07T11:38:04.172Z,5.20
2018-03-07T11:40:32.309Z,4.23
2018-03-07T11:43:00.469Z,4.63
2018-03-07T11:45:36.383Z,4.23
2018-03-07T11:48:04.546Z,6.17
2018-03-07T11:50:32.682Z,3.63
2018-03-07T11:53:00.838Z,3.50
2018-03-07T11:55:32.246Z,3.23
2018-03-07T11:58:00.430Z,3.67
2018-03-07T12:00:28.580Z,2.93
2018-03-07T12:02:56.737Z,7.53
2018-03-07T12:05:30.987Z,4.10
2018-03-07T12:07:59.134Z,4.63
2018-03-07T12:10:28.031Z,5.40
2018-03-07T12:12:56.191Z,4.80
2018-03-07T12:15:24.349Z,13.13
2018-03-07T12:17:52.526Z,4.63
2018-03-07T12:20:21.434Z,6.07
2018-03-07T12:22:50.354Z,3.93
2018-03-07T12:25:21.191Z,4.47
2018-03-07T12:27:49.374Z,3.90
2018-03-07T12:30:17.519Z,3.90
2018-03-07T12:32:45.675Z,4.73
2018-03-07T12:35:14.610Z,3.97
2018-03-07T12:37:42.757Z,4.03
2018-03-07T12:40:10.906Z,4.67
2018-03-07T12:42:39.820Z,3.97
2018-03-07T12:45:07.954Z,3.67
2018-03-07T12:47:36.113Z,4.17
2018-03-07T12:50:04.247Z,3.67
2018-03-07T12:52:33.354Z,3.67
2018-03-07T12:55:01.500Z,4.23
2018-03-07T12:57:29.674Z,3.70
2018-03-07T12:59:57.806Z,4.00
2018-03-07T13:02:25.957Z,3.20
2018-03-07T13:04:54.094Z,3.27
2018-03-07T13:07:26.298Z,2.90
2018-03-07T13:09:54.442Z,3.67
2018-03-07T13:12:22.602Z,3.30
2018-03-07T13:14:51.503Z,2.50
2018-03-07T13:17:19.663Z,3.93
2018-03-07T13:19:47.810Z,3.27
2018-03-07T13:22:15.988Z,1.90
2018-03-07T13:24:44.122Z,1.43
2018-03-07T13:27:14.314Z,1.17
2018-03-07T13:29:42.490Z,1.13
2018-03-07T13:32:10.667Z,1.00
2018-03-07T13:34:38.806Z,1.37
2018-03-07T13:37:12.093Z,1.20
2018-03-07T13:39:40.222Z,1.40
2018-03-07T13:42:08.374Z,1.33
2018-03-07T13:44:36.580Z,1.23
2018-03-07T13:47:12.016Z,1.47
2018-03-07T13:49:40.146Z,3.23
2018-03-07T13:52:09.066Z,1.50
2018-03-07T13:54:37.202Z,1.10
2018-03-07T13:57:09.753Z,1.87
2018-03-07T13:59:37.885Z,0.90
2018-03-07T14:02:06.018Z,1.00
2018-03-07T14:04:34.171Z,1.30
2018-03-07T14:07:05.899Z,0.80
2018-03-07T14:09:34.042Z,0.90
2018-03-07T14:12:02.170Z,5.17
2018-03-07T14:14:30.335Z,1.00
2018-03-07T14:16:58.466Z,1.07
2018-03-07T14:19:26.618Z,0.80
2018-03-07T14:21:55.537Z,2.10
2018-03-07T14:24:23.702Z,1.80
2018-03-07T14:26:51.843Z,1.73
2018-03-07T14:29:20.000Z,1.40
2018-03-07T14:31:48.121Z,1.30
2018-03-07T14:34:16.270Z,1.10
2018-03-07T14:36:44.397Z,1.77
2018-03-07T14:39:12.559Z,1.33
2018-03-07T14:41:40.686Z,2.40
2018-03-07T14:44:08.839Z,1.00
2018-03-07T14:46:38.942Z,0.77
2018-03-07T14:49:07.095Z,1.10
2018-03-07T14:51:35.241Z,0.97
2018-03-07T14:54:04.155Z,1.73
2018-03-07T14:56:41.975Z,1.20
2018-03-07T14:59:10.131Z,1.80
2018-03-07T15:01:39.027Z,2.17
2018-03-07T15:04:07.186Z,2.03
2018-03-07T15:06:35.362Z,2.53
2018-03-07T15:09:03.568Z,2.67
2018-03-07T15:11:31.716Z,1.63
2018-03-07T15:13:59.867Z,1.47
2018-03-07T15:16:31.571Z,1.40
2018-03-07T15:18:59.723Z,2.60
2018-03-07T15:21:27.865Z,1.30
2018-03-07T15:23:56.763Z,1.50
2018-03-07T15:26:28.559Z,1.67
2018-03-07T15:28:56.685Z,2.17
2018-03-07T15:31:25.603Z,1.80
2018-03-07T15:33:53.730Z,2.13
2018-03-07T15:36:23.870Z,3.43
2018-03-07T15:38:52.011Z,1.30
2018-03-07T15:41:20.168Z,2.10
2018-03-07T15:43:48.297Z,2.20
2018-03-07T15:46:31.830Z,1.53
2018-03-07T15:48:59.959Z,1.83
2018-03-07T15:51:28.106Z,2.60
2018-03-07T15:53:56.245Z,1.60
2018-03-07T15:56:30.102Z,2.27
2018-03-07T15:58:58.266Z,2.10
2018-03-07T16:01:26.474Z,2.13
2018-03-07T16:03:54.606Z,2.43
2018-03-07T16:06:57.622Z,2.20
2018-03-07T16:09:25.763Z,1.03
2018-03-07T16:11:53.922Z,1.43
2018-03-07T16:14:22.057Z,0.97
2018-03-07T16:16:51.220Z,1.10
2018-03-07T16:19:19.378Z,1.50
2018-03-07T16:21:47.526Z,1.53
2018-03-07T16:24:15.654Z,1.83
2018-03-07T16:26:49.745Z,2.10
2018-03-07T16:29:17.876Z,1.83
2018-03-07T16:31:46.029Z,1.40
2018-03-07T16:34:14.162Z,3.27
2018-03-07T16:36:42.313Z,1.47
2018-03-07T16:39:10.447Z,2.43
2018-03-07T16:41:39.431Z,1.53
2018-03-07T16:44:07.558Z,2.90
2018-03-07T16:46:42.962Z,1.83
2018-03-07T16:49:11.862Z,1.80
2018-03-07T16:51:40.821Z,1.30
2018-03-07T16:54:08.976Z,2.63
2018-03-07T16:56:37.146Z,7.70
2018-03-07T16:59:05.299Z,2.93
2018-03-07T17:01:33.429Z,3.13
2018-03-07T17:04:02.359Z,2.30
2018-03-07T17:06:34.141Z,1.73
2018-03-07T17:09:02.312Z,1.60
2018-03-07T17:11:30.446Z,1.43
2018-03-07T17:13:59.414Z,1.77
2018-03-07T17:16:30.934Z,1.83
2018-03-07T17:18:59.081Z,1.70
2018-03-07T17:21:27.232Z,1.80
2018-03-07T17:23:56.146Z,1.80
2018-03-07T17:26:25.314Z,2.40
2018-03-07T17:28:54.267Z,1.70
2018-03-07T17:31:22.390Z,2.30
2018-03-07T17:33:50.549Z,2.40
2018-03-07T17:36:19.471Z,2.87
2018-03-07T17:38:47.630Z,1.80
2018-03-07T17:41:15.753Z,1.40
2018-03-07T17:43:43.879Z,1.70
2018-03-07T17:46:17.844Z,3.23
2018-03-07T17:48:46.015Z,4.93
2018-03-07T17:51:14.214Z,1.73
2018-03-07T17:53:43.117Z,4.23
2018-03-07T17:56:12.036Z,3.63
2018-03-07T17:58:40.165Z,1.57
2018-03-07T18:01:09.128Z,1.20
2018-03-07T18:03:37.262Z,1.80
2018-03-07T18:06:10.271Z,1.50
2018-03-07T18:08:38.407Z,1.33
2018-03-07T18:11:06.590Z,2.50
2018-03-07T18:13:34.747Z,2.20
2018-03-07T18:16:20.659Z,1.40
2018-03-07T18:18:48.794Z,1.30
2018-03-07T18:21:17.755Z,3.23
2018-03-07T18:23:45.990Z,2.67
2018-03-07T18:26:24.983Z,1.17
2018-03-07T18:28:53.214Z,0.90
2018-03-07T18:31:21.358Z,0.70
2018-03-07T18:33:49.493Z,0.90
2018-03-07T18:36:21.863Z,1.87
2018-03-07T18:38:49.997Z,2.60
2018-03-07T18:41:18.146Z,1.27
2018-03-07T18:43:46.288Z,0.80
2018-03-07T18:46:14.478Z,2.13
2018-03-07T18:48:43.382Z,0.70
2018-03-07T18:51:12.294Z,3.07
2018-03-07T18:53:40.423Z,1.20
2018-03-07T18:56:20.946Z,0.97
2018-03-07T18:58:49.078Z,2.67
2018-03-07T19:01:18.001Z,2.30
2018-03-07T19:03:46.170Z,2.63
2018-03-07T19:06:27.867Z,2.73
2018-03-07T19:08:55.999Z,2.13
2018-03-07T19:11:24.909Z,3.27
2018-03-07T19:13:53.046Z,1.97
2018-03-07T19:16:21.185Z,2.53
2018-03-07T19:18:49.340Z,1.97
2018-03-07T19:21:17.466Z,1.50
2018-03-07T19:23:45.614Z,1.37
2018-03-07T19:26:21.125Z,0.90
2018-03-07T19:28:49.356Z,2.77
2018-03-07T19:31:17.511Z,2.20
2018-03-07T19:33:45.727Z,1.60
2018-03-07T19:36:15.949Z,1.53
2018-03-07T19:38:44.954Z,1.13
2018-03-07T19:41:13.172Z,0.90
2018-03-07T19:43:41.360Z,2.40
2018-03-07T19:46:31.527Z,1.37
2018-03-07T19:48:59.754Z,0.93
2018-03-07T19:51:28.711Z,2.63
2018-03-07T19:53:56.874Z,1.07
2018-03-07T19:56:25.938Z,0.40
2018-03-07T19:58:54.088Z,1.13
2018-03-07T20:01:22.983Z,1.13
2018-03-07T20:03:51.133Z,0.93
2018-03-07T20:06:19.322Z,0.83
2018-03-07T20:08:47.478Z,0.87
2018-03-07T20:11:15.616Z,0.60
2018-03-07T20:13:43.775Z,0.77
2018-03-07T20:16:20.239Z,0.83
2018-03-07T20:18:48.474Z,0.70
2018-03-07T20:21:17.382Z,2.07
2018-03-07T20:23:45.526Z,0.50
2018-03-07T20:26:13.674Z,0.70
2018-03-07T20:28:41.810Z,0.50
2018-03-07T20:31:09.965Z,0.57
2018-03-07T20:33:38.867Z,1.70
2018-03-07T20:36:09.024Z,2.73
2018-03-07T20:38:37.150Z,1.07
2018-03-07T20:41:06.071Z,2.53
2018-03-07T20:43:35.039Z,1.73
2018-03-07T20:46:17.562Z,2.73
2018-03-07T20:48:45.710Z,8.73
2018-03-07T20:51:13.873Z,17.03
2018-03-07T20:53:42.786Z,35.73
2018-03-07T20:56:15.093Z,15.53
2018-03-07T20:58:43.219Z,5.37
2018-03-07T21:01:11.379Z,45.83
2018-03-07T21:03:41.109Z,2.30
2018-03-07T21:06:14.953Z,1.20
2018-03-07T21:08:43.102Z,1.00
2018-03-07T21:11:11.255Z,0.80
2018-03-07T21:13:40.146Z,1.23
2018-03-07T21:16:13.585Z,1.20
2018-03-07T21:18:50.242Z,0.90
2018-03-07T21:21:18.386Z,1.10
2018-03-07T21:23:47.282Z,1.10
2018-03-07T21:26:23.708Z,1.57
2018-03-07T21:28:51.834Z,1.57
2018-03-07T21:31:19.963Z,1.37
2018-03-07T21:33:48.115Z,1.27
2018-03-07T21:36:20.665Z,1.83
2018-03-07T21:38:48.821Z,1.60
2018-03-07T21:41:17.715Z,2.23
2018-03-07T21:43:45.882Z,2.87
2018-03-07T21:46:31.754Z,2.07
2018-03-07T21:49:00.691Z,3.23
2018-03-07T21:51:28.825Z,2.50
2018-03-07T21:53:57.734Z,2.30
2018-03-07T21:56:30.118Z,2.33
2018-03-07T21:58:58.274Z,2.00
2018-03-07T22:01:26.418Z,5.00
2018-03-07T22:03:54.575Z,2.23
2018-03-07T22:06:22.713Z,3.43
2018-03-07T22:08:50.869Z,2.87
2018-03-07T22:11:18.999Z,2.73
2018-03-07T22:13:47.151Z,3.00
2018-03-07T22:16:19.010Z,3.00
2018-03-07T22:18:47.164Z,3.17
2018-03-07T22:21:15.306Z,2.70
2018-03-07T22:23:43.459Z,2.57
2018-03-07T22:26:11.589Z,2.70
2018-03-07T22:28:39.742Z,2.60
2018-03-07T22:31:07.872Z,2.67
2018-03-07T22:33:36.035Z,2.90
2018-03-07T22:36:08.678Z,2.93
2018-03-07T22:38:36.832Z,3.27
2018-03-07T22:41:04.993Z,3.30
2018-03-07T22:43:33.894Z,3.60
2018-03-07T22:46:06.823Z,3.30
2018-03-07T22:48:34.954Z,2.90
2018-03-07T22:51:03.106Z,3.20
2018-03-07T22:53:32.039Z,6.13
2018-03-07T22:56:14.543Z,3.37
2018-03-07T22:58:42.683Z,4.07
2018-03-07T23:01:11.606Z,4.30
2018-03-07T23:03:39.738Z,4.53
2018-03-07T23:06:07.942Z,4.00
2018-03-07T23:08:36.071Z,4.40
2018-03-07T23:11:04.243Z,4.20
2018-03-07T23:13:32.378Z,3.63
2018-03-07T23:16:08.577Z,3.70
2018-03-07T23:18:36.701Z,4.50
2018-03-07T23:21:04.862Z,4.90
2018-03-07T23:23:33.751Z,4.07
2018-03-07T23:26:03.594Z,5.03
2018-03-07T23:28:31.778Z,4.57
2018-03-07T23:30:59.914Z,8.90
2018-03-07T23:33:28.070Z,4.10
2018-03-07T23:36:04.469Z,5.77
2018-03-07T23:38:32.698Z,5.50
2018-03-07T23:41:00.845Z,6.03
2018-03-07T23:43:29.104Z,6.00
2018-03-07T23:45:57.323Z,5.47
2018-03-07T23:48:25.545Z,5.33
2018-03-07T23:50:53.718Z,5.97
2018-03-07T23:53:21.874Z,5.50
2018-03-07T23:55:50.001Z,5.97
2018-03-07T23:58:18.166Z,6.47
